sensor_id;sensor_type;location;lat;lon;timestamp;pressure;altitude;pressure_sealevel;temperature;humidity
72414;BME280;60995;52.154;4.498;2023-05-22T00:01:07;101657.91;;;14.76;80.59
72414;BME280;60995;52.154;4.498;2023-05-22T00:03:23;101657.31;;;14.72;80.06
72414;BME280;60995;52.154;4.498;2023-05-22T00:05:40;101662.03;;;14.70;80.52
72414;BME280;60995;52.154;4.498;2023-05-22T00:07:56;101658.63;;;14.68;80.61
72414;BME280;60995;52.154;4.498;2023-05-22T00:10:12;101652.00;;;14.71;80.48
72414;BME280;60995;52.154;4.498;2023-05-22T00:12:28;101650.53;;;14.57;80.93
72414;BME280;60995;52.154;4.498;2023-05-22T00:14:45;101656.41;;;14.62;80.91
72414;BME280;60995;52.154;4.498;2023-05-22T00:17:01;101660.63;;;14.66;80.88
72414;BME280;60995;52.154;4.498;2023-05-22T00:19:18;101648.00;;;14.65;80.77
72414;BME280;60995;52.154;4.498;2023-05-22T00:21:38;101649.41;;;14.69;80.78
72414;BME280;60995;52.154;4.498;2023-05-22T00:23:54;101639.19;;;14.71;80.69
72414;BME280;60995;52.154;4.498;2023-05-22T00:26:14;101637.19;;;14.64;80.54
72414;BME280;60995;52.154;4.498;2023-05-22T00:28:31;101644.50;;;14.73;80.89
72414;BME280;60995;52.154;4.498;2023-05-22T00:30:47;101638.94;;;14.75;80.70
72414;BME280;60995;52.154;4.498;2023-05-22T00:33:04;101632.16;;;14.79;80.57
72414;BME280;60995;52.154;4.498;2023-05-22T00:35:20;101638.03;;;14.74;80.25
72414;BME280;60995;52.154;4.498;2023-05-22T00:37:36;101638.75;;;14.86;80.54
72414;BME280;60995;52.154;4.498;2023-05-22T00:39:53;101650.41;;;14.88;80.35
72414;BME280;60995;52.154;4.498;2023-05-22T00:42:09;101652.41;;;14.86;79.98
72414;BME280;60995;52.154;4.498;2023-05-22T00:44:25;101655.75;;;14.80;80.27
72414;BME280;60995;52.154;4.498;2023-05-22T00:46:42;101651.97;;;14.81;80.63
72414;BME280;60995;52.154;4.498;2023-05-22T00:48:58;101652.56;;;14.94;80.38
72414;BME280;60995;52.154;4.498;2023-05-22T00:51:14;101643.63;;;14.92;80.10
72414;BME280;60995;52.154;4.498;2023-05-22T00:53:32;101652.25;;;14.97;80.07
72414;BME280;60995;52.154;4.498;2023-05-22T00:55:50;101647.94;;;14.95;80.14
72414;BME280;60995;52.154;4.498;2023-05-22T00:58:14;101656.00;;;14.96;79.91
72414;BME280;60995;52.154;4.498;2023-05-22T01:00:34;101654.25;;;14.95;79.98
72414;BME280;60995;52.154;4.498;2023-05-22T01:02:52;101653.72;;;14.92;80.05
72414;BME280;60995;52.154;4.498;2023-05-22T01:05:08;101658.03;;;14.94;80.24
72414;BME280;60995;52.154;4.498;2023-05-22T01:07:27;101655.97;;;15.06;79.77
72414;BME280;60995;52.154;4.498;2023-05-22T01:09:45;101647.09;;;14.94;79.65
72414;BME280;60995;52.154;4.498;2023-05-22T01:12:13;101639.78;;;14.75;79.92
72414;BME280;60995;52.154;4.498;2023-05-22T01:15:23;101630.53;;;14.86;80.17
72414;BME280;60995;52.154;4.498;2023-05-22T01:20:49;101632.44;;;14.76;80.10
72414;BME280;60995;52.154;4.498;2023-05-22T01:31:46;101622.53;;;14.75;80.63
72414;BME280;60995;52.154;4.498;2023-05-22T01:34:10;101619.66;;;14.76;80.89
72414;BME280;60995;52.154;4.498;2023-05-22T01:36:32;101611.41;;;14.86;80.58
72414;BME280;60995;52.154;4.498;2023-05-22T01:38:52;101602.69;;;14.72;80.48
72414;BME280;60995;52.154;4.498;2023-05-22T01:41:09;101588.44;;;14.69;80.81
72414;BME280;60995;52.154;4.498;2023-05-22T01:43:27;101580.66;;;14.84;80.90
72414;BME280;60995;52.154;4.498;2023-05-22T01:45:43;101583.56;;;14.82;80.83
72414;BME280;60995;52.154;4.498;2023-05-22T01:47:59;101580.66;;;14.84;80.77
72414;BME280;60995;52.154;4.498;2023-05-22T01:50:16;101577.34;;;14.90;80.89
72414;BME280;60995;52.154;4.498;2023-05-22T01:52:56;101566.53;;;14.98;80.50
72414;BME280;60995;52.154;4.498;2023-05-22T01:55:32;101553.91;;;14.87;80.20
72414;BME280;60995;52.154;4.498;2023-05-22T01:58:18;101552.31;;;14.95;80.11
72414;BME280;60995;52.154;4.498;2023-05-22T02:00:46;101556.78;;;14.86;80.85
72414;BME280;60995;52.154;4.498;2023-05-22T02:03:14;101556.09;;;14.74;80.54
72414;BME280;60995;52.154;4.498;2023-05-22T02:05:37;101551.31;;;14.86;80.66
72414;BME280;60995;52.154;4.498;2023-05-22T02:07:56;101543.72;;;14.80;80.77
72414;BME280;60995;52.154;4.498;2023-05-22T02:10:17;101540.94;;;14.89;80.92
72414;BME280;60995;52.154;4.498;2023-05-22T02:12:35;101539.50;;;14.95;80.59
72414;BME280;60995;52.154;4.498;2023-05-22T02:14:52;101528.44;;;14.87;80.47
72414;BME280;60995;52.154;4.498;2023-05-22T02:17:09;101543.00;;;14.78;80.68
72414;BME280;60995;52.154;4.498;2023-05-22T02:19:26;101536.38;;;14.80;80.95
72414;BME280;60995;52.154;4.498;2023-05-22T02:21:43;101525.88;;;14.76;81.11
72414;BME280;60995;52.154;4.498;2023-05-22T02:23:59;101527.03;;;14.83;81.44
72414;BME280;60995;52.154;4.498;2023-05-22T02:26:17;101521.00;;;14.79;81.35
72414;BME280;60995;52.154;4.498;2023-05-22T02:28:33;101518.25;;;14.79;81.27
72414;BME280;60995;52.154;4.498;2023-05-22T02:30:50;101525.47;;;14.70;81.35
72414;BME280;60995;52.154;4.498;2023-05-22T02:33:06;101511.66;;;14.82;81.47
72414;BME280;60995;52.154;4.498;2023-05-22T02:35:24;101519.09;;;14.89;81.46
72414;BME280;60995;52.154;4.498;2023-05-22T02:37:40;101515.09;;;14.84;81.65
72414;BME280;60995;52.154;4.498;2023-05-22T02:39:57;101517.41;;;14.79;81.24
72414;BME280;60995;52.154;4.498;2023-05-22T02:42:13;101520.56;;;14.74;81.53
72414;BME280;60995;52.154;4.498;2023-05-22T02:44:30;101528.63;;;14.76;81.62
72414;BME280;60995;52.154;4.498;2023-05-22T02:46:46;101541.00;;;14.80;81.85
72414;BME280;60995;52.154;4.498;2023-05-22T02:49:02;101540.13;;;14.79;81.62
72414;BME280;60995;52.154;4.498;2023-05-22T02:51:19;101525.47;;;14.70;81.48
72414;BME280;60995;52.154;4.498;2023-05-22T02:53:35;101533.13;;;14.67;81.46
72414;BME280;60995;52.154;4.498;2023-05-22T02:55:55;101534.97;;;14.66;81.63
72414;BME280;60995;52.154;4.498;2023-05-22T02:58:14;101533.28;;;14.65;81.42
72414;BME280;60995;52.154;4.498;2023-05-22T03:00:30;101532.41;;;14.65;81.77
72414;BME280;60995;52.154;4.498;2023-05-22T03:02:46;101536.41;;;14.70;81.97
72414;BME280;60995;52.154;4.498;2023-05-22T03:05:04;101533.81;;;14.69;81.68
72414;BME280;60995;52.154;4.498;2023-05-22T03:07:21;101537.84;;;14.65;81.93
72414;BME280;60995;52.154;4.498;2023-05-22T03:09:37;101534.53;;;14.61;82.01
72414;BME280;60995;52.154;4.498;2023-05-22T03:11:53;101533.97;;;14.58;81.92
72414;BME280;60995;52.154;4.498;2023-05-22T03:14:10;101535.84;;;14.57;82.00
72414;BME280;60995;52.154;4.498;2023-05-22T03:16:26;101540.59;;;14.65;81.84
72414;BME280;60995;52.154;4.498;2023-05-22T03:18:42;101541.47;;;14.65;82.15
72414;BME280;60995;52.154;4.498;2023-05-22T03:20:59;101537.13;;;14.72;81.98
72414;BME280;60995;52.154;4.498;2023-05-22T03:23:15;101538.69;;;14.75;82.01
72414;BME280;60995;52.154;4.498;2023-05-22T03:25:32;101544.56;;;14.90;81.86
72414;BME280;60995;52.154;4.498;2023-05-22T03:27:49;101538.69;;;14.75;81.69
72414;BME280;60995;52.154;4.498;2023-05-22T03:30:06;101533.31;;;14.93;81.70
72414;BME280;60995;52.154;4.498;2023-05-22T03:32:23;101538.06;;;14.91;81.47
72414;BME280;60995;52.154;4.498;2023-05-22T03:34:39;101533.91;;;14.87;81.29
72414;BME280;60995;52.154;4.498;2023-05-22T03:36:56;101534.91;;;14.96;81.28
72414;BME280;60995;52.154;4.498;2023-05-22T03:39:12;101534.22;;;14.84;81.01
72414;BME280;60995;52.154;4.498;2023-05-22T03:41:30;101538.06;;;14.91;81.21
72414;BME280;60995;52.154;4.498;2023-05-22T03:43:46;101543.78;;;15.08;80.77
72414;BME280;60995;52.154;4.498;2023-05-22T03:46:02;101533.66;;;15.18;80.46
72414;BME280;60995;52.154;4.498;2023-05-22T03:48:19;101538.63;;;15.04;79.78
72414;BME280;60995;52.154;4.498;2023-05-22T03:50:36;101536.50;;;15.26;79.89
72414;BME280;60995;52.154;4.498;2023-05-22T03:52:52;101530.00;;;15.27;79.70
72414;BME280;60995;52.154;4.498;2023-05-22T03:55:08;101538.94;;;15.29;79.10
72414;BME280;60995;52.154;4.498;2023-05-22T03:57:25;101534.16;;;15.31;79.12
72414;BME280;60995;52.154;4.498;2023-05-22T03:59:42;101530.50;;;15.13;79.12
72414;BME280;60995;52.154;4.498;2023-05-22T04:01:58;101521.91;;;15.08;79.42
72414;BME280;60995;52.154;4.498;2023-05-22T04:04:15;101522.50;;;15.01;79.57
72414;BME280;60995;52.154;4.498;2023-05-22T04:06:32;101531.44;;;15.03;79.71
72414;BME280;60995;52.154;4.498;2023-05-22T04:08:49;101532.25;;;15.14;79.60
72414;BME280;60995;52.154;4.498;2023-05-22T04:11:05;101529.94;;;15.09;79.43
72414;BME280;60995;52.154;4.498;2023-05-22T04:13:23;101524.75;;;15.16;79.29
72414;BME280;60995;52.154;4.498;2023-05-22T04:15:39;101525.97;;;15.31;79.22
72414;BME280;60995;52.154;4.498;2023-05-22T04:18:01;101525.69;;;15.34;78.95
72414;BME280;60995;52.154;4.498;2023-05-22T04:20:17;101524.97;;;15.32;78.79
72414;BME280;60995;52.154;4.498;2023-05-22T04:22:34;101531.41;;;15.41;78.37
72414;BME280;60995;52.154;4.498;2023-05-22T04:24:50;101533.03;;;15.52;78.32
72414;BME280;60995;52.154;4.498;2023-05-22T04:27:06;101531.69;;;15.66;77.96
72414;BME280;60995;52.154;4.498;2023-05-22T04:29:22;101530.50;;;15.68;77.50
72414;BME280;60995;52.154;4.498;2023-05-22T04:31:39;101531.59;;;15.76;77.03
72414;BME280;60995;52.154;4.498;2023-05-22T04:33:59;101530.16;;;15.81;76.82
72414;BME280;60995;52.154;4.498;2023-05-22T04:36:15;101527.84;;;15.77;76.58
72414;BME280;60995;52.154;4.498;2023-05-22T04:38:37;101531.19;;;15.98;76.42
72414;BME280;60995;52.154;4.498;2023-05-22T04:40:53;101535.56;;;16.09;75.56
72414;BME280;60995;52.154;4.498;2023-05-22T04:43:09;101530.31;;;16.16;74.99
72414;BME280;60995;52.154;4.498;2023-05-22T04:45:28;101539.31;;;16.26;74.52
72414;BME280;60995;52.154;4.498;2023-05-22T04:47:45;101540.63;;;16.40;74.25
72414;BME280;60995;52.154;4.498;2023-05-22T04:50:01;101529.56;;;16.50;73.66
72414;BME280;60995;52.154;4.498;2023-05-22T04:52:18;101533.59;;;16.37;73.08
72414;BME280;60995;52.154;4.498;2023-05-22T04:54:34;101528.16;;;16.46;73.10
72414;BME280;60995;52.154;4.498;2023-05-22T04:56:51;101529.06;;;16.73;72.69
72414;BME280;60995;52.154;4.498;2023-05-22T04:59:07;101529.69;;;16.66;72.03
72414;BME280;60995;52.154;4.498;2023-05-22T05:01:23;101528.69;;;16.94;71.57
72414;BME280;60995;52.154;4.498;2023-05-22T05:03:42;101538.91;;;17.18;70.68
72414;BME280;60995;52.154;4.498;2023-05-22T05:05:59;101529.91;;;16.99;70.18
72414;BME280;60995;52.154;4.498;2023-05-22T05:08:16;101532.38;;;17.11;70.53
72414;BME280;60995;52.154;4.498;2023-05-22T05:10:32;101530.84;;;17.59;70.29
72414;BME280;60995;52.154;4.498;2023-05-22T05:12:48;101536.03;;;17.79;69.08
72414;BME280;60995;52.154;4.498;2023-05-22T05:15:05;101534.06;;;18.22;68.59
72414;BME280;60995;52.154;4.498;2023-05-22T05:17:22;101523.41;;;18.27;67.02
72414;BME280;60995;52.154;4.498;2023-05-22T05:19:38;101524.63;;;18.25;66.20
72414;BME280;60995;52.154;4.498;2023-05-22T05:21:55;101539.56;;;18.14;66.27
72414;BME280;60995;52.154;4.498;2023-05-22T05:24:11;101532.50;;;18.19;66.05
72414;BME280;60995;52.154;4.498;2023-05-22T05:26:27;101536.84;;;18.30;66.06
72414;BME280;60995;52.154;4.498;2023-05-22T05:28:44;101549.50;;;18.23;65.06
72414;BME280;60995;52.154;4.498;2023-05-22T05:31:00;101532.34;;;18.46;65.67
72414;BME280;60995;52.154;4.498;2023-05-22T05:33:17;101551.03;;;19.40;64.62
72414;BME280;60995;52.154;4.498;2023-05-22T05:35:34;101545.84;;;20.54;61.30
72414;BME280;60995;52.154;4.498;2023-05-22T05:37:51;101538.97;;;20.88;58.12
72414;BME280;60995;52.154;4.498;2023-05-22T05:40:07;101537.75;;;21.36;55.52
72414;BME280;60995;52.154;4.498;2023-05-22T05:42:24;101551.19;;;19.86;58.15
72414;BME280;60995;52.154;4.498;2023-05-22T05:44:40;101552.88;;;19.08;61.38
72414;BME280;60995;52.154;4.498;2023-05-22T05:46:57;101561.56;;;18.30;63.58
72414;BME280;60995;52.154;4.498;2023-05-22T05:49:13;101567.34;;;17.94;65.19
72414;BME280;60995;52.154;4.498;2023-05-22T05:51:29;101563.31;;;17.72;66.76
72414;BME280;60995;52.154;4.498;2023-05-22T05:53:45;101548.88;;;17.70;67.32
72414;BME280;60995;52.154;4.498;2023-05-22T05:56:02;101556.94;;;17.72;67.65
72414;BME280;60995;52.154;4.498;2023-05-22T05:58:19;101565.59;;;17.93;67.19
72414;BME280;60995;52.154;4.498;2023-05-22T06:00:35;101554.47;;;18.19;66.52
72414;BME280;60995;52.154;4.498;2023-05-22T06:02:52;101573.22;;;18.57;65.84
72414;BME280;60995;52.154;4.498;2023-05-22T06:05:09;101573.56;;;18.62;65.44
72414;BME280;60995;52.154;4.498;2023-05-22T06:07:25;101567.38;;;18.44;65.08
72414;BME280;60995;52.154;4.498;2023-05-22T06:09:43;101573.91;;;18.34;65.59
72414;BME280;60995;52.154;4.498;2023-05-22T06:11:59;101564.47;;;18.45;66.19
72414;BME280;60995;52.154;4.498;2023-05-22T06:14:16;101581.63;;;18.72;65.58
72414;BME280;60995;52.154;4.498;2023-05-22T06:16:32;101575.94;;;18.65;65.31
72414;BME280;60995;52.154;4.498;2023-05-22T06:18:49;101571.13;;;18.76;64.72
72414;BME280;60995;52.154;4.498;2023-05-22T06:21:07;101565.28;;;19.04;64.58
72414;BME280;60995;52.154;4.498;2023-05-22T06:23:23;101564.88;;;19.15;63.97
72414;BME280;60995;52.154;4.498;2023-05-22T06:25:39;101570.59;;;18.89;64.00
72414;BME280;60995;52.154;4.498;2023-05-22T06:27:56;101578.00;;;18.96;64.83
72414;BME280;60995;52.154;4.498;2023-05-22T06:30:12;101571.41;;;19.22;63.59
72414;BME280;60995;52.154;4.498;2023-05-22T06:32:28;101565.94;;;19.06;64.05
72414;BME280;60995;52.154;4.498;2023-05-22T06:34:47;101564.88;;;19.15;64.40
72414;BME280;60995;52.154;4.498;2023-05-22T06:37:04;101558.34;;;19.16;64.32
72414;BME280;60995;52.154;4.498;2023-05-22T06:39:21;101564.13;;;19.38;63.80
72414;BME280;60995;52.154;4.498;2023-05-22T06:41:37;101560.00;;;19.42;63.23
72414;BME280;60995;52.154;4.498;2023-05-22T06:43:54;101555.00;;;19.37;63.81
72414;BME280;60995;52.154;4.498;2023-05-22T06:46:10;101566.50;;;19.49;63.66
72414;BME280;60995;52.154;4.498;2023-05-22T06:48:26;101563.06;;;19.47;62.64
72414;BME280;60995;52.154;4.498;2023-05-22T06:50:42;101554.72;;;19.63;62.62
72414;BME280;60995;52.154;4.498;2023-05-22T06:52:59;101560.34;;;19.39;63.41
72414;BME280;60995;52.154;4.498;2023-05-22T06:55:15;101568.69;;;19.54;63.25
72414;BME280;60995;52.154;4.498;2023-05-22T06:57:31;101576.50;;;19.42;63.23
72414;BME280;60995;52.154;4.498;2023-05-22T06:59:48;101573.78;;;19.33;63.12
72414;BME280;60995;52.154;4.498;2023-05-22T07:02:04;101587.47;;;18.94;64.03
72414;BME280;60995;52.154;4.498;2023-05-22T07:04:21;101585.91;;;19.08;64.47
72414;BME280;60995;52.154;4.498;2023-05-22T07:06:38;101603.66;;;19.45;63.58
72414;BME280;60995;52.154;4.498;2023-05-22T07:08:56;101590.53;;;20.64;62.03
72414;BME280;60995;52.154;4.498;2023-05-22T07:11:12;101586.50;;;23.10;54.03
72414;BME280;60995;52.154;4.498;2023-05-22T07:13:28;101586.03;;;24.99;49.71
72414;BME280;60995;52.154;4.498;2023-05-22T07:15:46;101587.25;;;27.53;43.18
72414;BME280;60995;52.154;4.498;2023-05-22T07:18:03;101583.34;;;28.34;40.70
72414;BME280;60995;52.154;4.498;2023-05-22T07:20:19;101582.44;;;28.64;38.15
72414;BME280;60995;52.154;4.498;2023-05-22T07:22:36;101581.19;;;27.56;40.15
72414;BME280;60995;52.154;4.498;2023-05-22T07:24:53;101584.66;;;25.48;43.91
72414;BME280;60995;52.154;4.498;2023-05-22T07:27:09;101578.94;;;23.67;47.58
72414;BME280;60995;52.154;4.498;2023-05-22T07:29:29;101594.72;;;23.60;49.26
72414;BME280;60995;52.154;4.498;2023-05-22T07:31:46;101594.47;;;22.91;51.51
72414;BME280;60995;52.154;4.498;2023-05-22T07:34:02;101591.44;;;22.86;50.90
72414;BME280;60995;52.154;4.498;2023-05-22T07:36:18;101595.19;;;23.28;50.77
72414;BME280;60995;52.154;4.498;2023-05-22T07:38:35;101578.72;;;23.20;50.27
72414;BME280;60995;52.154;4.498;2023-05-22T07:40:52;101587.41;;;22.60;51.67
72414;BME280;60995;52.154;4.498;2023-05-22T07:43:08;101580.03;;;22.68;51.45
72414;BME280;60995;52.154;4.498;2023-05-22T07:45:25;101580.53;;;22.78;51.58
72414;BME280;60995;52.154;4.498;2023-05-22T07:47:41;101577.34;;;22.81;51.29
72414;BME280;60995;52.154;4.498;2023-05-22T07:49:57;101579.81;;;22.98;51.52
72414;BME280;60995;52.154;4.498;2023-05-22T07:52:14;101578.28;;;22.88;51.87
72414;BME280;60995;52.154;4.498;2023-05-22T07:54:30;101586.91;;;23.84;50.42
72414;BME280;60995;52.154;4.498;2023-05-22T07:56:47;101584.97;;;27.00;43.47
72414;BME280;60995;52.154;4.498;2023-05-22T07:59:03;101587.22;;;29.34;37.54
72414;BME280;60995;52.154;4.498;2023-05-22T08:01:25;101584.06;;;31.09;34.42
72414;BME280;60995;52.154;4.498;2023-05-22T08:03:42;101590.00;;;32.24;31.17
72414;BME280;60995;52.154;4.498;2023-05-22T08:05:58;101585.72;;;32.76;30.52
72414;BME280;60995;52.154;4.498;2023-05-22T08:08:14;101586.72;;;31.60;33.19
72414;BME280;60995;52.154;4.498;2023-05-22T08:10:30;101581.97;;;34.45;28.34
72414;BME280;60995;52.154;4.498;2023-05-22T08:12:47;101587.59;;;33.56;29.78
72414;BME280;60995;52.154;4.498;2023-05-22T08:15:04;101585.06;;;34.43;28.16
72414;BME280;60995;52.154;4.498;2023-05-22T08:17:20;101578.16;;;35.53;26.63
72414;BME280;60995;52.154;4.498;2023-05-22T08:19:37;101570.66;;;36.28;25.72
72414;BME280;60995;52.154;4.498;2023-05-22T08:21:54;101567.97;;;35.57;26.81
72414;BME280;60995;52.154;4.498;2023-05-22T08:24:12;101571.16;;;35.24;27.05
72414;BME280;60995;52.154;4.498;2023-05-22T08:26:29;101580.09;;;36.82;24.87
72414;BME280;60995;52.154;4.498;2023-05-22T08:28:45;101573.31;;;37.61;24.01
72414;BME280;60995;52.154;4.498;2023-05-22T08:31:01;101565.50;;;38.48;23.21
72414;BME280;60995;52.154;4.498;2023-05-22T08:33:18;101567.28;;;37.19;23.97
72414;BME280;60995;52.154;4.498;2023-05-22T08:35:34;101566.84;;;37.31;24.18
72414;BME280;60995;52.154;4.498;2023-05-22T08:37:50;101566.56;;;36.49;24.78
72414;BME280;60995;52.154;4.498;2023-05-22T08:40:11;101563.34;;;36.61;25.16
72414;BME280;60995;52.154;4.498;2023-05-22T08:42:29;101559.59;;;37.00;24.69
72414;BME280;60995;52.154;4.498;2023-05-22T08:44:46;101559.28;;;38.46;22.80
72414;BME280;60995;52.154;4.498;2023-05-22T08:47:03;101564.03;;;37.55;23.23
72414;BME280;60995;52.154;4.498;2023-05-22T08:49:24;101560.91;;;37.32;24.18
72414;BME280;60995;52.154;4.498;2023-05-22T08:51:44;101557.72;;;38.01;24.14
72414;BME280;60995;52.154;4.498;2023-05-22T08:54:08;101556.50;;;38.08;23.20
72414;BME280;60995;52.154;4.498;2023-05-22T08:56:30;101550.53;;;37.47;23.94
72414;BME280;60995;52.154;4.498;2023-05-22T08:58:46;101553.66;;;38.08;22.90
72414;BME280;60995;52.154;4.498;2023-05-22T09:01:06;101553.28;;;38.33;23.44
72414;BME280;60995;52.154;4.498;2023-05-22T09:03:26;101552.28;;;38.24;22.80
72414;BME280;60995;52.154;4.498;2023-05-22T09:05:47;101554.44;;;37.94;23.27
72414;BME280;60995;52.154;4.498;2023-05-22T09:08:05;101550.84;;;39.34;21.90
72414;BME280;60995;52.154;4.498;2023-05-22T09:10:25;101561.63;;;38.25;23.24
72414;BME280;60995;52.154;4.498;2023-05-22T09:13:07;101553.75;;;37.83;23.28
72414;BME280;60995;52.154;4.498;2023-05-22T09:15:28;101552.56;;;37.65;23.56
72414;BME280;60995;52.154;4.498;2023-05-22T09:17:46;101539.94;;;34.74;27.01
72414;BME280;60995;52.154;4.498;2023-05-22T09:20:03;101549.28;;;34.59;27.63
72414;BME280;60995;52.154;4.498;2023-05-22T09:22:21;101559.75;;;36.10;25.76
72414;BME280;60995;52.154;4.498;2023-05-22T09:24:39;101550.00;;;35.27;26.12
72414;BME280;60995;52.154;4.498;2023-05-22T09:27:02;101553.31;;;35.50;26.08
72414;BME280;60995;52.154;4.498;2023-05-22T09:29:18;101546.44;;;34.90;27.41
72414;BME280;60995;52.154;4.498;2023-05-22T09:31:42;101547.97;;;35.48;26.08
72414;BME280;60995;52.154;4.498;2023-05-22T09:33:58;101548.34;;;36.61;25.04
72414;BME280;60995;52.154;4.498;2023-05-22T09:36:15;101545.25;;;36.22;25.42
72414;BME280;60995;52.154;4.498;2023-05-22T09:38:32;101547.28;;;35.67;25.76
72414;BME280;60995;52.154;4.498;2023-05-22T09:40:52;101550.81;;;35.33;26.25
72414;BME280;60995;52.154;4.498;2023-05-22T09:43:10;101555.44;;;35.73;25.98
72414;BME280;60995;52.154;4.498;2023-05-22T09:45:26;101560.97;;;35.39;26.24
72414;BME280;60995;52.154;4.498;2023-05-22T09:47:47;101559.75;;;36.10;25.39
72414;BME280;60995;52.154;4.498;2023-05-22T09:50:05;101560.09;;;33.73;28.79
72414;BME280;60995;52.154;4.498;2023-05-22T09:52:22;101565.53;;;33.27;29.25
72414;BME280;60995;52.154;4.498;2023-05-22T09:57:05;101568.06;;;33.97;28.18
72414;BME280;60995;52.154;4.498;2023-05-22T09:59:29;101563.34;;;34.75;27.82
72414;BME280;60995;52.154;4.498;2023-05-22T10:01:49;101562.47;;;35.05;27.04
72414;BME280;60995;52.154;4.498;2023-05-22T10:04:07;101571.03;;;33.11;29.91
72414;BME280;60995;52.154;4.498;2023-05-22T10:06:29;101573.63;;;31.66;31.80
72414;BME280;60995;52.154;4.498;2023-05-22T10:08:57;101574.41;;;32.38;31.08
72414;BME280;60995;52.154;4.498;2023-05-22T10:11:20;101580.38;;;32.74;30.27
72414;BME280;60995;52.154;4.498;2023-05-22T10:13:39;101577.72;;;32.62;30.39
72414;BME280;60995;52.154;4.498;2023-05-22T10:15:57;101569.81;;;34.29;28.22
72414;BME280;60995;52.154;4.498;2023-05-22T10:18:15;101577.16;;;34.51;26.98
72414;BME280;60995;52.154;4.498;2023-05-22T10:20:32;101577.69;;;33.33;29.13
72414;BME280;60995;52.154;4.498;2023-05-22T10:22:49;101576.00;;;32.29;30.23
72414;BME280;60995;52.154;4.498;2023-05-22T10:25:06;101573.66;;;31.93;31.06
72414;BME280;60995;52.154;4.498;2023-05-22T10:27:23;101578.03;;;32.66;29.94
72414;BME280;60995;52.154;4.498;2023-05-22T10:29:45;101564.66;;;33.21;29.56
72414;BME280;60995;52.154;4.498;2023-05-22T10:32:13;101577.47;;;32.09;31.03
72414;BME280;60995;52.154;4.498;2023-05-22T10:34:50;101570.22;;;33.64;28.75
72414;BME280;60995;52.154;4.498;2023-05-22T10:40:06;101560.03;;;32.02;31.20
72414;BME280;60995;52.154;4.498;2023-05-22T10:42:28;101566.56;;;31.41;32.50
72414;BME280;60995;52.154;4.498;2023-05-22T10:44:46;101560.63;;;31.60;32.52
72414;BME280;60995;52.154;4.498;2023-05-22T10:47:07;101556.34;;;32.61;30.88
72414;BME280;60995;52.154;4.498;2023-05-22T10:49:26;101552.78;;;33.77;28.84
72414;BME280;60995;52.154;4.498;2023-05-22T10:51:43;101557.13;;;34.06;28.52
72414;BME280;60995;52.154;4.498;2023-05-22T10:54:00;101554.00;;;34.07;28.65
72414;BME280;60995;52.154;4.498;2023-05-22T10:56:20;101548.34;;;33.87;29.34
72414;BME280;60995;52.154;4.498;2023-05-22T10:58:37;101552.94;;;33.40;29.73
72414;BME280;60995;52.154;4.498;2023-05-22T11:01:17;101547.47;;;33.18;30.53
72414;BME280;60995;52.154;4.498;2023-05-22T11:03:54;101547.47;;;32.42;31.12
72414;BME280;60995;52.154;4.498;2023-05-22T11:06:35;101543.50;;;33.67;29.74
72414;BME280;60995;52.154;4.498;2023-05-22T11:08:54;101542.38;;;33.78;29.53
72414;BME280;60995;52.154;4.498;2023-05-22T11:11:12;101534.25;;;33.82;28.99
72414;BME280;60995;52.154;4.498;2023-05-22T11:13:28;101530.34;;;33.24;30.61
72414;BME280;60995;52.154;4.498;2023-05-22T11:15:47;101528.22;;;32.94;30.97
72414;BME280;60995;52.154;4.498;2023-05-22T11:18:04;101528.84;;;33.64;29.53
72414;BME280;60995;52.154;4.498;2023-05-22T11:20:22;101532.38;;;33.29;30.59
72414;BME280;60995;52.154;4.498;2023-05-22T11:22:41;101536.16;;;33.07;31.12
72414;BME280;60995;52.154;4.498;2023-05-22T11:25:15;101529.38;;;33.51;29.95
72414;BME280;60995;52.154;4.498;2023-05-22T11:27:33;101531.16;;;33.14;30.77
72414;BME280;60995;52.154;4.498;2023-05-22T11:29:51;101542.94;;;33.11;31.19
72414;BME280;60995;52.154;4.498;2023-05-22T11:32:09;101540.00;;;32.21;32.24
72414;BME280;60995;52.154;4.498;2023-05-22T11:34:32;101544.31;;;31.57;33.28
72414;BME280;60995;52.154;4.498;2023-05-22T11:36:51;101544.59;;;30.60;35.54
72414;BME280;60995;52.154;4.498;2023-05-22T11:39:07;101539.28;;;30.97;34.28
72414;BME280;60995;52.154;4.498;2023-05-22T11:41:28;101545.41;;;30.09;35.48
72414;BME280;60995;52.154;4.498;2023-05-22T11:43:45;101551.69;;;30.16;35.49
72414;BME280;60995;52.154;4.498;2023-05-22T11:46:05;101559.03;;;29.12;37.35
72414;BME280;60995;52.154;4.498;2023-05-22T11:48:23;101559.41;;;29.80;36.02
72414;BME280;60995;52.154;4.498;2023-05-22T11:50:42;101551.81;;;29.93;35.52
72414;BME280;60995;52.154;4.498;2023-05-22T11:52:58;101548.06;;;29.46;36.46
72414;BME280;60995;52.154;4.498;2023-05-22T11:55:16;101552.53;;;30.00;35.90
72414;BME280;60995;52.154;4.498;2023-05-22T11:57:33;101558.19;;;29.12;37.34
72414;BME280;60995;52.154;4.498;2023-05-22T11:59:50;101569.75;;;27.95;39.56
72414;BME280;60995;52.154;4.498;2023-05-22T12:02:06;101562.13;;;27.72;40.01
72414;BME280;60995;52.154;4.498;2023-05-22T12:04:23;101582.78;;;28.13;39.30
72414;BME280;60995;52.154;4.498;2023-05-22T12:06:41;101565.22;;;27.64;40.11
72414;BME280;60995;52.154;4.498;2023-05-22T12:08:58;101578.97;;;27.96;39.52
72414;BME280;60995;52.154;4.498;2023-05-22T12:11:15;101581.44;;;28.04;39.54
72414;BME280;60995;52.154;4.498;2023-05-22T12:13:32;101571.44;;;28.15;39.21
72414;BME280;60995;52.154;4.498;2023-05-22T12:15:48;101579.84;;;28.27;39.39
72414;BME280;60995;52.154;4.498;2023-05-22T12:18:08;101572.50;;;27.65;40.25
72414;BME280;60995;52.154;4.498;2023-05-22T12:20:29;101577.47;;;27.44;41.26